Time;durP1;ratioP1;P1;durP2;ratioP2;P2;SDS_P1;SDS_P2;PMS_P1;PMS_P2;Temp;Humidity;BMP_temperature;BMP_pressure;BME280_temperature;BME280_humidity;BME280_pressure;Samples;Min_cycle;Max_cycle;Signal;HPM_P1;HPM_P2
2021/03/01 02:27:05;;;;;;;12.38;8.40;;;1.80;99.90;;;;;;4722386;29;20219;-83
2021/03/01 02:29:33;;;;;;;10.93;9.68;;;1.90;99.90;;;;;;4849886;29;20245;-82
2021/03/01 02:32:04;;;;;;;13.43;9.85;;;1.80;99.90;;;;;;4869269;29;20315;-82
2021/03/01 04:35:26;;;;;;;10.52;8.77;;;1.40;99.90;;;;;;4741174;30;20319;-82
2021/03/01 04:38:03;;;;;;;12.50;8.73;;;1.40;99.90;;;;;;4767230;30;20238;-82
2021/03/01 04:40:30;;;;;;;13.23;9.02;;;1.40;99.90;;;;;;4899120;29;20212;-82
2021/03/01 04:42:57;;;;;;;10.90;8.80;;;1.40;99.90;;;;;;4902321;29;20220;-81
2021/03/01 04:45:26;;;;;;;9.73;7.85;;;1.40;99.90;;;;;;4899976;29;20209;-81
2021/03/01 04:47:53;;;;;;;15.77;8.45;;;1.40;99.90;;;;;;4900067;29;20215;-82
2021/03/01 04:50:20;;;;;;;13.80;9.68;;;1.40;99.90;;;;;;4900474;29;20220;-82
2021/03/01 04:52:47;;;;;;;11.30;8.80;;;1.40;99.90;;;;;;4901173;29;20235;-81
2021/03/01 04:55:14;;;;;;;11.55;8.88;;;1.40;99.90;;;;;;4900983;29;20224;-82
2021/03/01 04:57:41;;;;;;;10.68;9.20;;;1.40;99.90;;;;;;4900669;29;20251;-82
2021/03/01 05:00:10;;;;;;;11.70;8.40;;;1.40;99.90;;;;;;4900267;29;20231;-82
2021/03/01 05:02:37;;;;;;;10.95;9.20;;;1.40;99.90;;;;;;4899691;29;20234;-82
2021/03/01 05:05:05;;;;;;;9.73;8.68;;;1.40;99.90;;;;;;4899891;29;20211;-82
2021/03/01 05:07:34;;;;;;;10.48;9.45;;;1.40;99.90;;;;;;4909902;29;20301;-81
2021/03/01 05:10:01;;;;;;;14.50;9.93;;;1.40;99.90;;;;;;4900857;29;20236;-81
2021/03/01 05:12:28;;;;;;;15.68;11.15;;;1.40;99.90;;;;;;4899022;29;20208;-81
2021/03/01 05:14:54;;;;;;;10.82;8.32;;;1.30;99.90;;;;;;4899546;29;20228;-82
2021/03/01 05:17:20;;;;;;;12.77;9.55;;;1.30;99.90;;;;;;4899853;29;20216;-81
2021/03/01 05:19:46;;;;;;;13.57;9.40;;;1.30;99.90;;;;;;4899479;29;20319;-82
2021/03/01 05:22:13;;;;;;;14.55;8.40;;;1.30;99.90;;;;;;4899525;29;20236;-81
2021/03/01 05:24:40;;;;;;;11.20;9.30;;;1.30;99.90;;;;;;4899871;29;20681;-81
2021/03/01 05:27:06;;;;;;;13.00;8.93;;;1.30;99.90;;;;;;4899574;29;20215;-82
2021/03/01 05:29:34;;;;;;;14.23;9.50;;;1.30;99.90;;;;;;4899550;29;20291;-81
2021/03/01 05:32:00;;;;;;;10.18;9.27;;;1.30;99.90;;;;;;4899763;29;20270;-81
2021/03/01 05:34:27;;;;;;;10.40;8.93;;;1.30;99.90;;;;;;4899540;29;20260;-81
2021/03/01 05:36:53;;;;;;;12.52;10.35;;;1.30;99.90;;;;;;4900289;29;20215;-81
2021/03/01 05:39:19;;;;;;;10.27;8.07;;;1.30;99.90;;;;;;4899640;29;20236;-81
2021/03/01 05:41:47;;;;;;;14.50;8.88;;;1.30;99.90;;;;;;4899520;29;20213;-81
2021/03/01 05:44:14;;;;;;;10.75;8.30;;;1.30;99.90;;;;;;4901673;29;20621;-81
2021/03/01 05:46:41;;;;;;;16.42;11.00;;;1.20;99.90;;;;;;4904180;29;20232;-81
2021/03/01 05:49:08;;;;;;;13.60;12.15;;;1.20;99.90;;;;;;4903147;29;20746;-80
2021/03/01 05:51:37;;;;;;;10.90;8.63;;;1.20;99.90;;;;;;4904144;29;20223;-81
2021/03/01 05:54:05;;;;;;;12.57;9.95;;;1.20;99.90;;;;;;4908995;29;20211;-81
2021/03/01 05:56:33;;;;;;;11.02;9.50;;;1.20;99.90;;;;;;4913936;29;20212;-81
2021/03/01 05:59:00;;;;;;;13.30;10.55;;;1.10;99.90;;;;;;4903571;29;20597;-81
2021/03/01 06:01:27;;;;;;;16.67;10.52;;;1.10;99.90;;;;;;4902885;29;20301;-81
2021/03/01 06:03:53;;;;;;;11.15;10.10;;;1.10;99.90;;;;;;4903233;29;20282;-81
2021/03/01 06:06:19;;;;;;;14.32;11.52;;;1.10;99.90;;;;;;4903071;29;20211;-81
2021/03/01 06:08:45;;;;;;;14.60;10.50;;;1.10;99.90;;;;;;4903363;29;20234;-81
2021/03/01 06:11:12;;;;;;;13.45;9.75;;;1.10;99.90;;;;;;4903454;29;20248;-81
2021/03/01 06:13:38;;;;;;;17.92;9.70;;;1.10;99.90;;;;;;4903879;29;20212;-81
2021/03/01 06:16:09;;;;;;;10.20;9.15;;;1.10;99.90;;;;;;4903394;29;20631;-81
2021/03/01 06:18:44;;;;;;;10.90;8.77;;;1.10;99.90;;;;;;4903029;29;20231;-81
2021/03/01 06:21:12;;;;;;;14.05;11.40;;;1.10;99.90;;;;;;4902969;29;20239;-81
2021/03/01 06:23:39;;;;;;;15.07;10.43;;;1.20;99.90;;;;;;4902992;29;20248;-81
2021/03/01 06:26:23;;;;;;;16.95;11.18;;;1.20;99.90;;;;;;4902833;29;20210;-81
2021/03/01 06:28:51;;;;;;;12.13;9.57;;;1.20;99.90;;;;;;4902902;29;20228;-81
2021/03/01 06:31:40;;;;;;;13.65;9.45;;;1.20;99.90;;;;;;4903403;29;20586;-81
2021/03/01 06:34:27;;;;;;;18.98;10.32;;;1.20;99.90;;;;;;4902910;29;20199;-81
2021/03/01 06:37:05;;;;;;;13.10;10.88;;;1.30;99.90;;;;;;4902579;29;20291;-81
2021/03/01 06:39:34;;;;;;;12.32;10.02;;;1.30;99.90;;;;;;4903193;29;20315;-82
2021/03/01 06:42:20;;;;;;;14.55;10.25;;;1.30;99.90;;;;;;4909496;29;20207;-80
2021/03/01 06:44:48;;;;;;;12.13;10.15;;;1.40;99.90;;;;;;4905621;29;20293;-81
2021/03/01 06:47:16;;;;;;;15.23;10.45;;;1.50;99.90;;;;;;4902670;29;20216;-81
2021/03/01 06:49:44;;;;;;;14.27;9.32;;;1.50;99.90;;;;;;4903082;29;20235;-81
2021/03/01 06:52:11;;;;;;;14.88;11.95;;;1.60;99.90;;;;;;4902865;29;20247;-81
2021/03/01 06:54:37;;;;;;;18.30;12.35;;;1.60;99.90;;;;;;4903122;29;20301;-81
2021/03/01 06:57:04;;;;;;;14.73;12.10;;;1.70;99.90;;;;;;4902602;29;20219;-81
2021/03/01 06:59:30;;;;;;;16.08;12.88;;;1.80;99.90;;;;;;4903226;29;20616;-81
2021/03/01 07:01:58;;;;;;;16.50;12.05;;;1.90;99.90;;;;;;4901990;29;20211;-81
2021/03/01 07:04:27;;;;;;;15.00;10.95;;;2.00;99.90;;;;;;4902541;29;20225;-81
2021/03/01 07:06:56;;;;;;;14.90;12.07;;;2.00;99.90;;;;;;4905041;29;20215;-81
2021/03/01 07:09:23;;;;;;;22.30;13.68;;;2.10;99.90;;;;;;4906753;29;20244;-81
2021/03/01 07:11:50;;;;;;;16.50;12.15;;;2.20;99.90;;;;;;4904633;29;20224;-81
2021/03/01 07:14:17;;;;;;;18.88;13.48;;;2.30;99.90;;;;;;4904521;29;20209;-82
2021/03/01 07:16:46;;;;;;;18.40;13.75;;;2.30;99.90;;;;;;4902592;29;20208;-81
2021/03/01 07:19:15;;;;;;;15.15;12.68;;;2.40;99.90;;;;;;4902954;29;20743;-81
2021/03/01 07:21:44;;;;;;;16.95;12.70;;;2.50;99.90;;;;;;4902646;29;20284;-81
2021/03/01 07:24:12;;;;;;;14.93;11.00;;;2.60;99.90;;;;;;4902965;29;20233;-82
2021/03/01 07:26:39;;;;;;;15.30;13.57;;;2.60;99.90;;;;;;4902216;29;20214;-82
2021/03/01 07:29:10;;;;;;;16.63;12.98;;;2.70;99.90;;;;;;4904284;29;20236;-81
2021/03/01 07:31:38;;;;;;;15.10;12.20;;;2.80;99.90;;;;;;4910961;29;20215;-81
2021/03/01 07:34:05;;;;;;;13.32;10.52;;;2.90;99.90;;;;;;4902294;29;20214;-82
2021/03/01 07:36:32;;;;;;;12.38;9.93;;;3.00;99.90;;;;;;4901568;29;20202;-81
2021/03/01 07:39:01;;;;;;;14.38;11.35;;;3.10;99.90;;;;;;4902019;29;20257;-82
2021/03/01 07:41:27;;;;;;;13.02;11.63;;;3.20;99.90;;;;;;4901690;29;20238;-81
2021/03/01 07:43:55;;;;;;;14.85;13.00;;;3.30;99.90;;;;;;4901727;29;20234;-81
2021/03/01 07:46:26;;;;;;;15.95;11.23;;;3.40;99.90;;;;;;4902318;29;20582;-81
2021/03/01 07:48:54;;;;;;;14.90;11.68;;;3.50;99.90;;;;;;4901922;29;20237;-82
2021/03/01 07:51:39;;;;;;;14.43;10.63;;;3.60;99.90;;;;;;4902091;29;20213;-81
2021/03/01 07:54:07;;;;;;;12.55;10.50;;;3.70;99.90;;;;;;4901747;29;20213;-81
2021/03/01 07:56:43;;;;;;;15.13;9.77;;;3.80;99.90;;;;;;4902274;29;20211;-82
2021/03/01 07:59:10;;;;;;;14.32;9.20;;;4.00;99.90;;;;;;4901928;29;20244;-82
2021/03/01 08:01:37;;;;;;;13.45;9.45;;;4.10;99.90;;;;;;4902187;29;20660;-82
2021/03/01 08:04:06;;;;;;;11.20;9.90;;;4.20;99.90;;;;;;4901995;29;20282;-82
2021/03/01 08:06:54;;;;;;;12.68;10.55;;;4.40;99.90;;;;;;4901971;29;20256;-82
2021/03/01 08:09:46;;;;;;;15.48;10.20;;;4.50;99.90;;;;;;4901789;29;20267;-81
2021/03/01 08:12:33;;;;;;;9.70;8.27;;;4.60;99.90;;;;;;4901734;29;20255;-82
2021/03/01 08:15:03;;;;;;;10.32;9.35;;;4.80;99.90;;;;;;4900059;29;20746;-81
2021/03/01 08:17:31;;;;;;;13.07;7.93;;;4.90;99.90;;;;;;4910418;29;20218;-81
2021/03/01 08:19:59;;;;;;;9.95;8.95;;;5.00;99.90;;;;;;4903229;29;20227;-81
2021/03/01 08:22:26;;;;;;;9.30;8.40;;;5.20;99.90;;;;;;4901325;29;20222;-82
2021/03/01 08:24:54;;;;;;;9.57;8.20;;;5.30;99.90;;;;;;4901177;29;20234;-82
2021/03/01 08:27:39;;;;;;;10.23;7.32;;;5.30;99.90;;;;;;4901643;29;20211;-78
2021/03/01 08:30:24;;;;;;;12.65;7.30;;;5.50;99.90;;;;;;4907724;29;20231;-84
2021/03/01 08:33:32;;;;;;;10.65;7.93;;;5.70;99.90;;;;;;4906985;29;20207;-84
2021/03/01 08:36:22;;;;;;;9.20;7.75;;;5.90;99.90;;;;;;4907257;29;20215;-84
2021/03/01 08:39:08;;;;;;;;;;;;;;;;;;;;;
2021/03/01 08:44:59;;;;;;;7.80;7.00;;;6.50;98.60;;;;;;4818394;29;20209;-84
2021/03/01 08:47:27;;;;;;;8.15;6.43;;;6.70;98.30;;;;;;4869561;29;20254;-82
2021/03/01 08:49:53;;;;;;;9.40;7.57;;;6.80;97.70;;;;;;4895398;29;20227;-82
2021/03/01 08:52:20;;;;;;;10.02;7.57;;;7.00;97.40;;;;;;4909236;29;20219;-82
2021/03/01 08:54:46;;;;;;;9.88;7.35;;;7.00;96.80;;;;;;4906279;29;20203;-82
2021/03/01 08:57:12;;;;;;;11.73;7.78;;;7.10;96.50;;;;;;4906230;29;20214;-81
2021/03/01 08:59:39;;;;;;;10.10;7.88;;;7.20;96.00;;;;;;4920821;29;20874;-81
2021/03/01 09:02:06;;;;;;;6.55;5.90;;;7.30;95.70;;;;;;4920636;29;20217;-81
2021/03/01 09:04:32;;;;;;;9.35;7.95;;;7.30;95.40;;;;;;4917214;29;20223;-80
2021/03/01 09:07:09;;;;;;;8.55;7.65;;;7.30;94.90;;;;;;4910202;29;20203;-81
2021/03/01 09:09:46;;;;;;;8.70;7.13;;;7.40;94.70;;;;;;4899107;29;20229;-80
2021/03/01 09:12:18;;;;;;;7.85;7.00;;;7.40;94.50;;;;;;4901778;29;20203;-83
2021/03/01 09:14:44;;;;;;;8.05;6.95;;;7.50;94.50;;;;;;4901218;29;20202;-81
2021/03/01 09:17:11;;;;;;;8.05;7.07;;;7.50;94.20;;;;;;4905015;29;20215;-80
2021/03/01 09:19:37;;;;;;;9.70;6.88;;;7.60;94.20;;;;;;4900600;29;20235;-81
2021/03/01 09:22:06;;;;;;;8.50;7.53;;;7.70;93.90;;;;;;4899737;29;20207;-83
2021/03/01 09:24:32;;;;;;;9.70;8.38;;;7.70;93.90;;;;;;4900097;29;20231;-80
2021/03/01 09:26:59;;;;;;;7.88;7.07;;;7.80;94.00;;;;;;4902060;29;20215;-81
2021/03/01 09:29:25;;;;;;;8.82;8.02;;;7.90;93.60;;;;;;4903881;29;20227;-81
2021/03/01 09:31:54;;;;;;;18.42;8.43;;;8.00;93.60;;;;;;4903050;29;20215;-81
2021/03/01 09:34:25;;;;;;;12.02;9.02;;;8.00;93.40;;;;;;4903507;29;20211;-81
2021/03/01 09:36:52;;;;;;;11.43;7.40;;;8.10;92.80;;;;;;4903317;29;20195;-81
2021/03/01 09:39:21;;;;;;;10.10;8.48;;;8.20;93.00;;;;;;4903657;29;20712;-81
2021/03/01 09:41:48;;;;;;;7.35;6.75;;;8.30;93.20;;;;;;4903008;29;20244;-82
2021/03/01 09:44:23;;;;;;;8.63;7.15;;;8.40;93.00;;;;;;4903762;29;20227;-82
2021/03/01 09:46:50;;;;;;;9.18;7.35;;;8.50;92.40;;;;;;4909924;29;20543;-82
2021/03/01 09:49:16;;;;;;;8.48;7.40;;;8.50;92.20;;;;;;4910546;29;20291;-82
2021/03/01 09:51:46;;;;;;;8.32;7.55;;;8.60;92.20;;;;;;4908650;29;20634;-82
2021/03/01 09:54:12;;;;;;;9.10;7.30;;;8.70;92.10;;;;;;4917586;29;20221;-82
2021/03/01 09:56:44;;;;;;;7.68;6.97;;;8.80;91.40;;;;;;4921583;29;20216;-82
2021/03/01 09:59:11;;;;;;;9.40;6.75;;;8.90;91.30;;;;;;4912505;29;20218;-83
2021/03/01 10:01:38;;;;;;;8.35;7.28;;;9.10;91.60;;;;;;4906298;29;20208;-82
2021/03/01 10:04:04;;;;;;;9.02;7.65;;;9.20;90.40;;;;;;4909143;29;20222;-82
2021/03/01 10:06:32;;;;;;;9.60;7.57;;;9.20;90.20;;;;;;4923873;29;20211;-82
2021/03/01 10:09:04;;;;;;;8.20;7.30;;;9.40;90.10;;;;;;4913548;29;20224;-83
2021/03/01 10:11:31;;;;;;;8.70;7.80;;;9.50;89.20;;;;;;4926087;29;20462;-83
2021/03/01 10:14:03;;;;;;;8.90;8.13;;;9.60;88.20;;;;;;4923325;29;20461;-85
2021/03/01 10:16:33;;;;;;;9.63;7.85;;;9.70;88.00;;;;;;4923926;29;21065;-83
2021/03/01 10:19:11;;;;;;;8.03;7.33;;;9.80;87.10;;;;;;4923209;29;20234;-85
2021/03/01 10:21:37;;;;;;;7.83;6.27;;;10.00;83.70;;;;;;4923599;29;20452;-85
2021/03/01 10:24:07;;;;;;;7.77;6.93;;;10.20;82.80;;;;;;4912391;29;21035;-85
2021/03/01 10:26:49;;;;;;;9.07;8.17;;;10.40;82.60;;;;;;4906795;29;20462;-84
2021/03/01 10:29:15;;;;;;;7.70;7.07;;;10.50;80.30;;;;;;4903340;29;20512;-85
2021/03/01 10:31:42;;;;;;;8.37;7.30;;;10.70;78.50;;;;;;4902836;29;20439;-85
2021/03/01 10:34:10;;;;;;;7.77;7.07;;;10.70;78.00;;;;;;4904099;29;20459;-84
2021/03/01 10:36:54;;;;;;;7.57;6.90;;;10.90;77.10;;;;;;4905223;29;20470;-84
2021/03/01 10:39:23;;;;;;;8.03;7.23;;;11.10;76.30;;;;;;4903488;29;20568;-83
2021/03/01 10:41:51;;;;;;;7.13;6.17;;;11.20;75.80;;;;;;4914960;29;20951;-85
2021/03/01 10:45:10;;;;;;;;;;;;;;;;;;;;;
2021/03/01 10:52:11;;;;;;;7.50;6.80;;;12.00;73.60;;;;;;4829456;29;20451;-85
2021/03/01 10:55:35;;;;;;;;;;;;;;;;;;;;;
2021/03/01 10:58:25;;;;;;;6.87;5.97;;;12.50;70.10;;;;;;4900182;29;20531;-84
2021/03/01 11:01:42;;;;;;;6.40;5.80;;;12.90;67.30;;;;;;4904894;29;20966;-84
2021/03/01 11:39:49;;;;;;;;;;;;;;;;;;;;;
2021/03/01 11:42:47;;;;;;;5.40;4.90;;;21.70;37.20;;;;;;4879295;29;20473;-84
2021/03/01 11:45:29;;;;;;;;;;;;;;;;;;;;;
2021/03/01 11:48:17;;;;;;;;;;;;;;;;;;;;;
2021/03/01 11:51:27;;;;;;;5.00;4.50;;;22.90;31.90;;;;;;4900122;29;20463;-84
2021/03/01 11:57:47;;;;;;;4.63;4.23;;;23.60;31.50;;;;;;4895328;29;20555;-85
2021/03/01 12:03:58;;;;;;;4.80;4.50;;;24.30;30.70;;;;;;4802756;29;20448;-84
2021/03/01 12:10:36;;;;;;;;;;;;;;;;;;;;;
2021/03/01 12:13:30;;;;;;;5.00;4.60;;;24.90;28.90;;;;;;4901283;29;20492;-83
2021/03/01 12:16:36;;;;;;;4.13;3.83;;;25.40;28.70;;;;;;4904405;29;20493;-84
2021/03/01 12:19:42;;;;;;;6.40;5.80;;;25.80;28.30;;;;;;4843275;29;20523;-85
2021/03/01 12:22:09;;;;;;;4.80;4.50;;;26.20;28.10;;;;;;4856891;29;20474;-85
2021/03/01 12:24:35;;;;;;;4.60;4.20;;;26.40;27.20;;;;;;4883261;29;20467;-85
2021/03/01 12:27:01;;;;;;;5.60;5.20;;;26.80;27.20;;;;;;4902643;29;20510;-85
2021/03/01 12:29:28;;;;;;;5.60;5.17;;;27.00;26.80;;;;;;4902658;29;20485;-85
2021/03/01 12:31:54;;;;;;;4.70;4.10;;;27.10;26.60;;;;;;4901949;29;20481;-84
2021/03/01 12:34:20;;;;;;;5.43;4.93;;;27.10;26.20;;;;;;4901705;29;20497;-85
2021/03/01 12:36:47;;;;;;;4.40;4.10;;;27.30;26.40;;;;;;4902113;29;20461;-85
2021/03/01 12:39:14;;;;;;;5.20;4.70;;;27.40;26.40;;;;;;4901889;29;20906;-85
2021/03/01 12:41:40;;;;;;;4.50;4.20;;;27.60;26.20;;;;;;4902446;29;20519;-85
2021/03/01 12:44:07;;;;;;;6.87;4.60;;;27.70;25.70;;;;;;4902366;29;20459;-85
2021/03/01 12:46:33;;;;;;;5.30;4.90;;;27.90;25.70;;;;;;4901981;29;20488;-85
2021/03/01 12:49:00;;;;;;;4.07;3.77;;;28.00;26.10;;;;;;4902605;29;21009;-85
2021/03/01 12:51:26;;;;;;;5.07;4.57;;;28.20;25.90;;;;;;4901588;29;20468;-85
2021/03/01 12:53:52;;;;;;;5.07;3.90;;;28.40;26.00;;;;;;4901123;29;20485;-84
2021/03/01 12:56:21;;;;;;;5.73;5.33;;;28.70;26.00;;;;;;4902637;29;20628;-84
2021/03/01 12:58:47;;;;;;;5.20;4.80;;;28.80;25.80;;;;;;4900940;29;20464;-84
2021/03/01 13:01:13;;;;;;;6.23;5.43;;;29.00;25.80;;;;;;4900287;29;20474;-84
2021/03/01 13:03:39;;;;;;;4.90;4.50;;;29.20;26.00;;;;;;4911130;29;20447;-86
2021/03/01 13:06:16;;;;;;;5.13;4.73;;;29.30;25.80;;;;;;4905236;29;20452;-86
2021/03/01 13:38:58;;;;;;;6.10;5.60;;;30.50;24.70;;;;;;4712181;29;20898;-84
2021/03/01 13:45:11;;;;;;;5.83;5.30;;;30.80;25.00;;;;;;4715568;30;20515;-86
2021/03/01 14:17:31;;;;;;;;;;;;;;;;;;;;;
2021/03/01 14:33:45;;;;;;;;;;;;;;;;;;;;;
2021/03/01 14:44:10;;;;;;;;;;;;;;;;;;;;;
2021/03/01 16:45:49;;;;;;;;;;;;;;;;;;;;;
2021/03/01 17:44:30;;;;;;;6.73;5.20;;;11.60;45.00;;;;;;4768334;30;20442;-84
2021/03/01 17:47:43;;;;;;;5.30;4.90;;;11.50;45.50;;;;;;4749114;29;20539;-82
2021/03/01 17:50:18;;;;;;;8.33;7.50;;;11.40;46.00;;;;;;4884991;29;20524;-82
2021/03/01 17:52:51;;;;;;;7.43;6.43;;;11.30;46.40;;;;;;4903045;29;20501;-83
2021/03/01 17:55:37;;;;;;;9.60;6.53;;;11.30;46.70;;;;;;4902927;29;20561;-83
2021/03/01 17:58:35;;;;;;;;;;;;;;;;;;;;;
2021/03/01 18:01:30;;;;;;;6.60;5.90;;;11.00;47.20;;;;;;4903832;29;20455;-83
2021/03/01 18:04:05;;;;;;;6.50;5.87;;;11.00;47.80;;;;;;4904049;29;20463;-83
2021/03/01 18:06:59;;;;;;;7.10;5.33;;;10.90;48.10;;;;;;4904512;29;20455;-83
2021/03/01 18:09:51;;;;;;;11.33;6.30;;;10.80;48.50;;;;;;4897841;29;20485;-83
2021/03/01 18:16:22;;;;;;;8.67;7.80;;;10.50;49.10;;;;;;4773307;30;20515;-84
2021/03/01 18:19:02;;;;;;;9.10;7.20;;;10.50;49.60;;;;;;4850070;29;20489;-82
2021/03/01 18:21:36;;;;;;;8.17;7.10;;;10.40;50.70;;;;;;4901922;29;20823;-83
2021/03/01 18:24:10;;;;;;;7.60;6.77;;;10.30;50.60;;;;;;4901937;29;20457;-82
2021/03/01 18:26:38;;;;;;;7.00;6.30;;;10.30;51.00;;;;;;4901721;29;20460;-83
2021/03/01 18:29:09;;;;;;;8.40;6.53;;;10.20;52.00;;;;;;4902190;29;20841;-83
2021/03/01 18:31:44;;;;;;;9.27;6.87;;;10.10;51.70;;;;;;4904035;29;20484;-82
2021/03/01 18:34:15;;;;;;;7.90;6.93;;;10.00;52.20;;;;;;4905212;29;20497;-81
2021/03/01 18:36:46;;;;;;;7.97;7.00;;;10.00;52.50;;;;;;4903608;29;20472;-82
2021/03/01 18:39:20;;;;;;;8.27;7.37;;;9.90;53.70;;;;;;4903929;29;20449;-82
2021/03/01 18:41:51;;;;;;;8.40;7.40;;;9.90;54.00;;;;;;4903641;29;20467;-83
2021/03/01 18:44:23;;;;;;;8.45;7.13;;;9.80;54.10;;;;;;4903451;29;20989;-83
2021/03/01 18:46:55;;;;;;;8.23;7.43;;;9.80;54.50;;;;;;4904211;29;20616;-83
2021/03/01 18:49:28;;;;;;;9.65;7.35;;;9.70;54.40;;;;;;4903723;29;20259;-83
2021/03/01 18:51:54;;;;;;;8.52;7.65;;;9.70;54.60;;;;;;4903746;29;20271;-82
2021/03/01 18:54:27;;;;;;;8.73;7.07;;;9.50;54.80;;;;;;4903207;29;20234;-81
2021/03/01 18:57:12;;;;;;;11.20;8.68;;;9.50;55.50;;;;;;4905626;29;20216;-83
2021/03/01 19:02:52;;;;;;;9.38;7.53;;;9.30;55.90;;;;;;4903184;29;20245;-83
2021/03/01 19:32:11;;;;;;;;;;;;;;;;;;;;;
2021/03/01 19:34:46;;;;;;;11.17;8.17;;;8.90;59.50;;;;;;4928560;29;20223;-83
2021/03/01 19:40:39;;;;;;;8.23;7.50;;;8.80;60.20;;;;;;4937431;29;20889;-83
2021/03/01 19:43:17;;;;;;;;;;;;;;;;;;;;;
2021/03/01 19:45:55;;;;;;;8.85;7.72;;;8.70;61.20;;;;;;4937825;29;20202;-83
2021/03/01 19:48:23;;;;;;;11.65;8.60;;;8.60;61.40;;;;;;4936118;29;20611;-83
2021/03/01 19:50:50;;;;;;;10.82;9.48;;;8.50;61.80;;;;;;4930353;29;20221;-83
2021/03/01 19:53:16;;;;;;;11.98;9.35;;;8.50;62.50;;;;;;4926549;29;20211;-83
2021/03/01 19:55:43;;;;;;;11.65;9.38;;;8.40;63.20;;;;;;4929297;29;20233;-83
2021/03/01 19:58:09;;;;;;;9.55;8.05;;;8.40;63.50;;;;;;4929292;29;20213;-82
2021/03/01 20:00:36;;;;;;;10.52;8.15;;;8.30;63.70;;;;;;4931836;29;20211;-83
2021/03/01 20:03:04;;;;;;;12.75;8.32;;;8.30;63.90;;;;;;4934325;29;20237;-83
2021/03/01 20:08:48;;;;;;;13.65;10.40;;;8.20;64.70;;;;;;4934690;29;20229;-82
2021/03/01 20:11:19;;;;;;;14.25;8.98;;;8.10;65.30;;;;;;4925346;29;20222;-80
2021/03/01 20:13:55;;;;;;;11.43;9.48;;;8.00;65.90;;;;;;4924854;29;20198;-81
2021/03/01 20:16:34;;;;;;;11.05;9.57;;;8.00;66.70;;;;;;4920503;29;20190;-81
2021/03/01 20:19:13;;;;;;;11.18;8.57;;;7.90;67.30;;;;;;4928341;29;20358;-80
2021/03/01 20:24:59;;;;;;;;;;;;;;;;;;;;;
2021/03/01 20:27:29;;;;;;;20.17;15.50;;;7.60;69.40;;;;;;4916319;29;20232;-80
2021/03/01 20:29:57;;;;;;;18.08;13.95;;;7.60;70.20;;;;;;4918159;29;20225;-80
2021/03/01 20:32:26;;;;;;;19.27;15.75;;;7.60;70.50;;;;;;4918135;29;20210;-81
2021/03/01 20:34:59;;;;;;;17.98;16.15;;;7.50;70.70;;;;;;4918423;29;20718;-81
2021/03/01 20:37:26;;;;;;;16.98;15.27;;;7.50;71.00;;;;;;4921723;29;20328;-80
2021/03/01 20:39:53;;;;;;;15.93;14.25;;;7.50;71.30;;;;;;4926800;29;20230;-81
2021/03/01 20:42:20;;;;;;;19.33;14.57;;;7.40;71.40;;;;;;4928050;29;20221;-81
2021/03/01 20:44:56;;;;;;;14.80;13.27;;;7.40;71.80;;;;;;4928406;29;20202;-82
2021/03/01 20:47:31;;;;;;;17.52;15.27;;;7.40;72.40;;;;;;4937795;29;20225;-80
2021/03/01 20:50:04;;;;;;;17.42;14.18;;;7.30;73.40;;;;;;4920998;29;20241;-81
2021/03/01 20:52:33;;;;;;;19.90;15.60;;;7.30;74.00;;;;;;4921600;29;20203;-81
2021/03/01 20:55:01;;;;;;;20.02;16.83;;;7.20;74.50;;;;;;4927171;29;20250;-80
2021/03/01 20:57:30;;;;;;;17.75;14.50;;;7.20;74.80;;;;;;4935139;29;20293;-80
2021/03/01 21:00:06;;;;;;;17.70;15.55;;;7.10;75.00;;;;;;4918676;29;20230;-80
2021/03/01 21:02:39;;;;;;;18.33;15.98;;;7.10;76.20;;;;;;4933840;29;20569;-80
2021/03/01 21:05:13;;;;;;;18.25;14.50;;;7.10;75.90;;;;;;4926484;29;20281;-81
2021/03/01 21:07:40;;;;;;;18.17;14.57;;;7.00;76.30;;;;;;4934060;29;20213;-80
2021/03/01 21:10:20;;;;;;;22.20;14.35;;;7.00;76.90;;;;;;4927333;29;20902;-81
2021/03/01 21:16:05;;;;;;;16.83;13.30;;;6.90;78.20;;;;;;4920317;29;20229;-80
2021/03/01 21:18:42;;;;;;;18.15;15.35;;;6.90;78.50;;;;;;4929927;29;20226;-82
2021/03/01 21:21:31;;;;;;;15.40;12.82;;;6.90;79.30;;;;;;4934348;29;20741;-82
2021/03/01 21:24:07;;;;;;;16.92;14.07;;;6.80;79.60;;;;;;4926479;29;20210;-83
2021/03/01 21:27:04;;;;;;;17.77;14.52;;;6.80;80.50;;;;;;4919839;29;20222;-82
2021/03/01 21:29:40;;;;;;;17.27;14.25;;;6.70;81.00;;;;;;4919395;29;20230;-83
2021/03/01 21:32:11;;;;;;;19.17;15.82;;;6.70;81.80;;;;;;4920460;29;20190;-82
2021/03/01 21:34:49;;;;;;;15.65;13.93;;;6.60;82.10;;;;;;4920119;29;20230;-82
2021/03/01 21:37:36;;;;;;;18.65;13.07;;;6.60;82.60;;;;;;4912890;29;20218;-82
2021/03/01 21:40:16;;;;;;;;;;;;;;;;;;;;;
2021/03/01 21:42:46;;;;;;;17.98;14.98;;;6.60;83.50;;;;;;4917223;29;20224;-82
2021/03/01 21:45:38;;;;;;;18.15;15.02;;;6.50;83.70;;;;;;4924627;29;20238;-80
2021/03/01 21:48:15;;;;;;;17.42;14.18;;;6.40;84.10;;;;;;4921241;29;20214;-80
2021/03/01 21:50:49;;;;;;;13.63;12.13;;;6.40;84.60;;;;;;4918945;29;20234;-82
2021/03/01 21:53:28;;;;;;;15.82;14.23;;;6.40;85.20;;;;;;4918533;29;20207;-80
2021/03/01 21:55:57;;;;;;;17.30;13.80;;;6.30;85.40;;;;;;4924986;29;20229;-81
2021/03/01 21:58:29;;;;;;;25.13;15.90;;;6.30;86.60;;;;;;4925693;29;20257;-81
2021/03/01 22:01:04;;;;;;;19.80;14.05;;;6.30;86.60;;;;;;4924784;29;20191;-81
2021/03/01 22:03:58;;;;;;;;;;;;;;;;;;;;;
2021/03/01 22:07:14;;;;;;;18.13;14.70;;;6.20;87.10;;;;;;4921205;29;20206;-81
2021/03/01 22:16:18;;;;;;;15.90;13.63;;;6.10;89.50;;;;;;4878709;29;20245;-80
2021/03/01 22:22:22;;;;;;;;;;;;;;;;;;;;;
2021/03/01 22:25:17;;;;;;;15.77;13.07;;;5.90;90.40;;;;;;4890289;29;20207;-81
2021/03/01 22:27:48;;;;;;;19.63;14.65;;;5.80;90.70;;;;;;4927194;29;20301;-82
2021/03/01 22:30:20;;;;;;;16.00;13.88;;;5.80;90.90;;;;;;4932633;29;20222;-81
2021/03/01 22:32:56;;;;;;;14.13;12.63;;;5.80;91.00;;;;;;4941811;29;20194;-81
2021/03/01 22:35:56;;;;;;;17.15;14.85;;;5.70;91.10;;;;;;4935403;29;20233;-81
2021/03/01 22:38:26;;;;;;;20.25;15.90;;;5.70;91.40;;;;;;4929651;29;20254;-80
2021/03/01 22:41:03;;;;;;;19.42;15.35;;;5.60;91.60;;;;;;4928477;29;20214;-81
2021/03/01 22:43:58;;;;;;;21.02;16.63;;;5.60;91.90;;;;;;4929551;29;20206;-80
2021/03/01 22:46:29;;;;;;;21.33;18.55;;;5.60;92.10;;;;;;4883866;29;20209;-82
2021/03/01 22:48:58;;;;;;;26.88;19.83;;;5.50;92.80;;;;;;4934566;29;20221;-83
2021/03/01 22:51:26;;;;;;;25.10;20.15;;;5.50;92.80;;;;;;4935730;29;20685;-83
2021/03/01 22:53:53;;;;;;;22.77;18.70;;;5.50;92.90;;;;;;4934224;29;20203;-82
2021/03/01 22:56:26;;;;;;;24.05;18.80;;;5.50;93.10;;;;;;4935088;29;20205;-82
2021/03/01 22:58:52;;;;;;;21.55;17.58;;;5.50;93.20;;;;;;4936261;29;20230;-82
2021/03/01 23:01:18;;;;;;;27.33;18.55;;;5.50;93.40;;;;;;4934433;29;20678;-82
2021/03/01 23:03:45;;;;;;;22.80;17.55;;;5.50;93.60;;;;;;4935247;29;20209;-80
2021/03/01 23:06:11;;;;;;;24.65;18.45;;;5.50;93.60;;;;;;4934074;29;20218;-81
2021/03/01 23:08:37;;;;;;;33.97;23.70;;;5.40;93.70;;;;;;4935559;29;20221;-80
2021/03/01 23:11:04;;;;;;;22.25;19.67;;;5.40;93.80;;;;;;4934718;29;20277;-81
2021/03/01 23:13:31;;;;;;;24.17;18.17;;;5.40;93.90;;;;;;4932530;29;20301;-82
2021/03/01 23:15:57;;;;;;;22.98;18.05;;;5.40;94.00;;;;;;4941039;29;20255;-81
2021/03/01 23:18:23;;;;;;;27.45;20.52;;;5.40;94.10;;;;;;4926615;29;20223;-82
2021/03/01 23:20:49;;;;;;;24.35;18.85;;;5.40;94.20;;;;;;4935302;29;20211;-82
2021/03/01 23:23:15;;;;;;;21.75;17.80;;;5.30;94.20;;;;;;4924367;29;20214;-82
2021/03/01 23:25:42;;;;;;;25.25;17.00;;;5.30;94.30;;;;;;4927385;29;20570;-82
2021/03/01 23:28:10;;;;;;;19.38;17.27;;;5.30;94.30;;;;;;4925064;29;20218;-82
2021/03/01 23:30:37;;;;;;;20.88;13.57;;;5.30;94.50;;;;;;4925462;29;20210;-82
2021/03/01 23:33:04;;;;;;;16.75;13.82;;;5.20;94.50;;;;;;4925622;29;20207;-82
2021/03/01 23:35:30;;;;;;;19.05;14.75;;;5.20;94.60;;;;;;4925394;29;20285;-82
2021/03/01 23:37:57;;;;;;;17.77;15.02;;;5.20;94.80;;;;;;4925088;29;20638;-82
2021/03/01 23:40:23;;;;;;;15.10;11.80;;;5.20;95.10;;;;;;4924799;29;20213;-82
2021/03/01 23:42:53;;;;;;;19.77;13.73;;;5.10;95.10;;;;;;4923601;29;20221;-80
2021/03/01 23:45:20;;;;;;;12.68;11.00;;;5.10;95.10;;;;;;4923083;29;20706;-80
2021/03/01 23:47:52;;;;;;;16.70;13.02;;;5.10;95.10;;;;;;4925290;29;20580;-81
2021/03/01 23:50:19;;;;;;;14.02;11.52;;;5.10;95.20;;;;;;4923870;29;20257;-82
2021/03/01 23:52:48;;;;;;;18.33;14.73;;;5.10;95.40;;;;;;4924054;29;20242;-81
2021/03/01 23:55:15;;;;;;;17.65;13.15;;;5.10;95.50;;;;;;4924457;29;20210;-81
2021/03/01 23:57:42;;;;;;;16.63;11.95;;;5.10;95.70;;;;;;4925545;29;20226;-81
